Time;durP1;ratioP1;P1;durP2;ratioP2;P2;SDS_P1;SDS_P2;PMS_P1;PMS_P2;Temp;Humidity;BMP_temperature;BMP_pressure;BME280_temperature;BME280_humidity;BME280_pressure;Samples;Min_cycle;Max_cycle;Signal;HPM_P1;HPM_P2
2023/10/29 00:00:56;;;;;;;5.90;3.25;;;10.80;99.90;;;;;;5001344;28;20048;-78
2023/10/29 00:03:22;;;;;;;3.40;2.38;;;10.80;99.90;;;;;;5001413;28;20065;-78
2023/10/29 00:05:48;;;;;;;3.75;2.53;;;10.80;99.90;;;;;;5003229;28;20054;-80
2023/10/29 00:08:13;;;;;;;3.92;2.33;;;10.80;99.90;;;;;;5002477;28;20435;-81
2023/10/29 00:10:39;;;;;;;4.63;3.42;;;10.80;99.90;;;;;;5000819;28;20099;-80
2023/10/29 00:13:04;;;;;;;5.20;2.20;;;10.80;99.90;;;;;;5000452;28;20093;-77
2023/10/29 00:15:30;;;;;;;3.70;2.60;;;10.80;99.90;;;;;;5002721;28;20511;-78
2023/10/29 00:17:56;;;;;;;6.53;2.85;;;10.80;99.90;;;;;;5001319;28;20050;-81
2023/10/29 00:20:21;;;;;;;5.07;2.13;;;10.80;99.90;;;;;;5001611;28;20132;-80
2023/10/29 00:22:47;;;;;;;6.03;2.50;;;10.80;99.90;;;;;;5001352;28;20049;-78
2023/10/29 00:25:12;;;;;;;4.40;2.20;;;10.80;99.90;;;;;;5016270;28;20575;-77
2023/10/29 00:27:38;;;;;;;5.18;2.17;;;10.80;99.90;;;;;;5002816;28;20054;-78
2023/10/29 00:30:05;;;;;;;5.05;2.38;;;10.80;99.90;;;;;;5001201;28;20042;-78
2023/10/29 00:32:30;;;;;;;4.00;2.75;;;10.80;99.90;;;;;;5002928;28;20439;-79
2023/10/29 00:34:57;;;;;;;2.85;2.22;;;10.90;99.90;;;;;;5001433;28;20042;-77
2023/10/29 00:37:22;;;;;;;5.35;3.40;;;10.80;99.90;;;;;;5000876;28;20121;-79
2023/10/29 00:39:48;;;;;;;4.40;2.10;;;10.90;99.90;;;;;;5002551;28;20144;-80
2023/10/29 00:42:14;;;;;;;4.25;1.92;;;10.90;99.90;;;;;;5000510;28;20042;-77
2023/10/29 00:44:39;;;;;;;3.65;1.92;;;10.90;99.90;;;;;;5002246;28;20109;-78
2023/10/29 00:47:05;;;;;;;3.20;2.25;;;10.90;99.90;;;;;;5000328;28;20515;-77
2023/10/29 00:49:33;;;;;;;3.58;1.85;;;10.90;99.90;;;;;;5002950;28;20048;-80
2023/10/29 00:51:59;;;;;;;8.85;2.47;;;10.90;99.90;;;;;;5001890;28;20061;-80
2023/10/29 00:54:25;;;;;;;3.88;2.40;;;11.00;99.90;;;;;;5002132;28;20038;-79
2023/10/29 00:56:53;;;;;;;3.17;1.48;;;11.00;99.90;;;;;;5000123;28;20050;-77
2023/10/29 00:59:20;;;;;;;4.38;2.13;;;11.00;99.90;;;;;;5000753;28;20078;-79
2023/10/29 01:01:45;;;;;;;3.78;1.40;;;11.00;99.90;;;;;;5002028;28;20053;-79
2023/10/29 01:04:11;;;;;;;4.13;1.70;;;11.10;99.90;;;;;;5001612;28;20133;-78
2023/10/29 01:06:38;;;;;;;2.72;1.90;;;11.10;99.90;;;;;;5002111;28;20496;-78
2023/10/29 01:09:06;;;;;;;2.85;1.85;;;11.10;99.90;;;;;;5001977;28;20038;-80
2023/10/29 01:11:32;;;;;;;2.63;1.70;;;11.10;99.90;;;;;;5000457;28;20069;-78
2023/10/29 01:13:58;;;;;;;2.33;1.77;;;11.10;99.90;;;;;;5000725;28;20923;-78
2023/10/29 01:16:24;;;;;;;5.68;2.28;;;11.10;99.90;;;;;;5001535;28;20077;-79
2023/10/29 01:18:49;;;;;;;2.85;1.50;;;11.20;99.90;;;;;;5000934;28;20567;-79
2023/10/29 01:21:16;;;;;;;3.92;1.90;;;11.20;99.90;;;;;;5002436;28;20096;-79
2023/10/29 01:23:41;;;;;;;2.65;1.73;;;11.20;99.90;;;;;;5002124;28;20056;-79
2023/10/29 01:26:07;;;;;;;3.03;1.70;;;11.20;99.90;;;;;;5004336;28;20050;-78
2023/10/29 01:28:32;;;;;;;7.05;2.75;;;11.20;99.90;;;;;;5006183;28;20390;-79
2023/10/29 01:30:59;;;;;;;4.30;2.22;;;11.30;99.90;;;;;;5006299;28;20034;-80
2023/10/29 01:33:26;;;;;;;4.40;1.98;;;11.30;99.90;;;;;;5005255;28;20404;-77
2023/10/29 01:35:51;;;;;;;3.13;1.88;;;11.30;99.90;;;;;;5005606;28;20282;-77
2023/10/29 01:38:17;;;;;;;4.38;2.28;;;11.30;99.90;;;;;;5005671;28;20034;-79
2023/10/29 01:40:43;;;;;;;3.95;2.42;;;11.40;99.90;;;;;;5004676;28;20119;-80
2023/10/29 01:43:09;;;;;;;3.25;2.42;;;11.40;99.90;;;;;;5004167;28;20090;-77
2023/10/29 01:45:36;;;;;;;5.72;2.30;;;11.40;99.90;;;;;;5004479;28;20643;-79
2023/10/29 01:48:02;;;;;;;5.68;2.38;;;11.40;99.90;;;;;;5004949;28;20100;-79
2023/10/29 01:50:28;;;;;;;3.65;1.60;;;11.40;99.90;;;;;;5003954;28;20439;-79
2023/10/29 01:52:54;;;;;;;4.72;1.88;;;11.40;99.90;;;;;;5004633;28;20056;-80
2023/10/29 01:55:19;;;;;;;3.45;2.00;;;11.40;99.90;;;;;;5003618;28;20046;-77
2023/10/29 01:57:45;;;;;;;6.30;2.35;;;11.50;99.90;;;;;;4987919;28;20061;-77
2023/10/29 02:00:11;;;;;;;3.58;2.47;;;11.50;99.90;;;;;;5003991;28;20041;-80
2023/10/29 02:02:37;;;;;;;1.75;1.15;;;11.50;99.90;;;;;;5067615;22;20092;-77
2023/10/29 02:05:06;;;;;;;3.55;2.05;;;11.50;99.90;;;;;;4995549;28;20077;-78
2023/10/29 02:07:32;;;;;;;3.65;2.08;;;11.50;99.90;;;;;;4991846;28;20511;-78
2023/10/29 02:09:57;;;;;;;3.25;1.77;;;11.60;99.90;;;;;;4984535;28;20069;-80
2023/10/29 02:12:23;;;;;;;3.15;1.33;;;11.60;99.90;;;;;;5002322;28;20522;-80
2023/10/29 02:14:49;;;;;;;2.40;1.38;;;11.60;99.90;;;;;;5005004;28;20472;-77
2023/10/29 02:17:14;;;;;;;3.03;1.13;;;11.60;99.90;;;;;;5003158;28;20034;-76
2023/10/29 02:19:40;;;;;;;3.35;1.25;;;11.60;99.90;;;;;;5004984;28;20045;-79
2023/10/29 02:22:05;;;;;;;5.03;1.48;;;11.60;99.90;;;;;;5004667;28;20038;-80
2023/10/29 02:24:31;;;;;;;1.90;1.10;;;11.60;99.90;;;;;;4987683;28;20074;-80
2023/10/29 02:26:57;;;;;;;3.70;1.13;;;11.70;99.90;;;;;;5002534;28;20050;-77
2023/10/29 02:29:22;;;;;;;2.15;1.20;;;11.60;99.90;;;;;;5003512;28;20096;-78
2023/10/29 02:31:48;;;;;;;2.17;1.52;;;11.70;99.90;;;;;;5004792;28;20046;-80
2023/10/29 02:34:13;;;;;;;3.38;1.75;;;11.70;99.90;;;;;;5004432;28;20394;-80
2023/10/29 02:36:39;;;;;;;2.55;1.20;;;11.70;99.90;;;;;;5002415;28;20076;-78
2023/10/29 02:39:06;;;;;;;3.33;1.33;;;11.70;99.90;;;;;;4964395;28;20493;-78
2023/10/29 02:41:32;;;;;;;1.42;1.15;;;11.70;99.90;;;;;;4963995;28;20677;-79
2023/10/29 02:43:58;;;;;;;1.88;0.68;;;11.70;99.90;;;;;;4965912;28;20086;-80
2023/10/29 02:46:24;;;;;;;0.70;0.68;;;11.70;99.90;;;;;;4964099;28;20046;-79
2023/10/29 02:48:50;;;;;;;1.73;1.08;;;11.70;99.90;;;;;;4965220;28;20051;-78
2023/10/29 02:51:15;;;;;;;3.65;1.10;;;11.80;99.90;;;;;;4964242;28;20042;-78
2023/10/29 02:53:41;;;;;;;0.75;0.75;;;11.80;99.90;;;;;;5003053;28;20077;-77
2023/10/29 02:56:07;;;;;;;1.75;0.75;;;11.80;99.90;;;;;;5002352;28;20053;-80
2023/10/29 02:58:33;;;;;;;2.55;0.93;;;11.80;99.90;;;;;;5004683;28;20034;-79
2023/10/29 03:01:17;;;;;;;4.60;1.10;;;11.80;99.90;;;;;;5004537;28;20068;-78
2023/10/29 03:03:44;;;;;;;0.93;0.80;;;11.80;99.90;;;;;;5002688;28;20132;-79
2023/10/29 03:06:10;;;;;;;2.03;1.55;;;11.90;99.90;;;;;;5002873;28;20054;-80
2023/10/29 03:08:36;;;;;;;2.00;0.65;;;11.90;99.90;;;;;;4988574;28;20543;-80
2023/10/29 03:11:03;;;;;;;5.30;2.03;;;11.80;99.90;;;;;;4983093;28;20054;-77
2023/10/29 03:13:29;;;;;;;0.95;0.60;;;11.80;99.90;;;;;;4967307;28;20140;-79
2023/10/29 03:15:56;;;;;;;2.28;0.80;;;11.80;99.90;;;;;;4984614;28;20137;-80
2023/10/29 03:18:22;;;;;;;0.80;0.63;;;11.80;99.90;;;;;;4983019;28;20077;-77
2023/10/29 03:20:48;;;;;;;1.20;0.70;;;11.80;99.90;;;;;;4983992;28;20503;-78
2023/10/29 03:23:13;;;;;;;2.97;1.35;;;11.90;99.90;;;;;;4982842;28;20050;-78
2023/10/29 03:25:39;;;;;;;2.35;0.68;;;11.80;99.90;;;;;;4982233;28;20042;-80
2023/10/29 03:28:05;;;;;;;1.42;0.90;;;11.80;99.90;;;;;;4982627;28;20034;-80
2023/10/29 03:30:31;;;;;;;2.88;0.70;;;11.80;99.90;;;;;;4985691;28;20472;-78
2023/10/29 03:32:56;;;;;;;1.25;0.70;;;11.90;99.90;;;;;;5002103;28;20536;-78
2023/10/29 03:35:25;;;;;;;1.45;0.60;;;11.80;99.90;;;;;;5003090;28;20038;-83
2023/10/29 03:37:51;;;;;;;1.20;0.98;;;11.90;99.90;;;;;;5002319;28;20038;-80
2023/10/29 03:40:16;;;;;;;1.33;0.60;;;11.80;99.90;;;;;;5001062;28;20034;-76
2023/10/29 03:42:42;;;;;;;1.50;0.70;;;11.80;99.90;;;;;;5003371;28;20629;-77
2023/10/29 03:45:08;;;;;;;1.92;0.80;;;11.90;99.90;;;;;;5002050;28;20049;-76
2023/10/29 03:47:33;;;;;;;3.67;1.83;;;11.80;99.90;;;;;;5003047;28;20125;-76
2023/10/29 03:49:59;;;;;;;1.00;0.70;;;11.90;99.90;;;;;;5003612;28;20048;-78
2023/10/29 03:52:25;;;;;;;1.00;0.68;;;11.90;99.90;;;;;;4985412;28;20385;-77
2023/10/29 03:54:50;;;;;;;1.35;1.02;;;11.80;99.90;;;;;;5001026;28;20081;-78
2023/10/29 03:57:16;;;;;;;4.05;0.80;;;11.90;99.90;;;;;;5001878;28;20446;-80
2023/10/29 03:59:43;;;;;;;0.50;0.50;;;11.90;99.90;;;;;;5002519;28;20054;-80
2023/10/29 04:02:09;;;;;;;0.50;0.43;;;11.90;99.90;;;;;;5002282;28;20065;-78
2023/10/29 04:04:35;;;;;;;2.15;0.88;;;11.90;99.90;;;;;;5001791;28;20657;-77
2023/10/29 04:07:02;;;;;;;1.75;0.80;;;11.90;99.90;;;;;;5000583;28;20101;-78
2023/10/29 04:09:28;;;;;;;1.52;0.98;;;11.90;99.90;;;;;;4981947;28;20042;-79
2023/10/29 04:11:54;;;;;;;1.27;0.60;;;12.00;99.90;;;;;;4981995;28;20054;-78
2023/10/29 04:14:20;;;;;;;0.70;0.43;;;11.90;99.90;;;;;;4983284;28;20073;-77
2023/10/29 04:16:45;;;;;;;5.72;0.60;;;12.00;99.90;;;;;;4983331;28;20061;-79
2023/10/29 04:19:11;;;;;;;2.70;0.52;;;12.00;99.90;;;;;;4982810;28;20034;-80
2023/10/29 04:21:37;;;;;;;0.60;0.57;;;12.00;99.90;;;;;;4983638;28;20451;-79
2023/10/29 04:24:03;;;;;;;0.82;0.80;;;12.10;99.90;;;;;;4983372;28;20182;-77
2023/10/29 04:26:28;;;;;;;1.67;0.75;;;12.10;99.90;;;;;;4980585;28;20116;-79
2023/10/29 04:28:54;;;;;;;0.30;0.30;;;12.00;99.90;;;;;;4983516;28;20412;-76
2023/10/29 04:31:20;;;;;;;0.20;0.20;;;12.00;99.90;;;;;;4983056;28;20053;-78
2023/10/29 04:33:48;;;;;;;0.35;0.20;;;12.00;99.90;;;;;;4982392;28;20758;-78
2023/10/29 04:36:23;;;;;;;0.90;0.40;;;11.90;99.90;;;;;;4981807;28;20408;-79
2023/10/29 04:38:49;;;;;;;0.68;0.57;;;11.90;99.90;;;;;;4982530;28;20073;-77
2023/10/29 04:41:15;;;;;;;0.77;0.35;;;11.80;99.90;;;;;;4981761;28;20070;-76
2023/10/29 04:43:41;;;;;;;2.13;0.32;;;11.80;99.90;;;;;;4983138;28;20045;-79
2023/10/29 04:46:10;;;;;;;3.70;0.70;;;11.70;99.90;;;;;;4982791;28;20493;-75
2023/10/29 04:48:36;;;;;;;0.45;0.45;;;11.70;99.90;;;;;;4981385;28;20054;-77
2023/10/29 04:51:02;;;;;;;0.17;0.17;;;11.70;99.90;;;;;;4983264;28;20132;-79
2023/10/29 04:53:31;;;;;;;0.55;0.30;;;11.70;99.90;;;;;;4981539;28;20133;-78
2023/10/29 04:55:56;;;;;;;0.25;0.10;;;11.70;99.90;;;;;;4981978;28;20125;-78
2023/10/29 04:58:22;;;;;;;0.47;0.20;;;11.70;99.90;;;;;;4983451;28;20189;-78
2023/10/29 05:00:47;;;;;;;1.83;0.40;;;11.60;99.90;;;;;;4985618;28;20085;-79
2023/10/29 05:03:13;;;;;;;0.75;0.75;;;11.60;99.90;;;;;;4985936;28;20066;-79
2023/10/29 05:05:38;;;;;;;0.28;0.17;;;11.60;99.90;;;;;;4987428;28;20050;-79
2023/10/29 05:08:04;;;;;;;0.40;0.40;;;11.60;99.90;;;;;;4984653;28;20097;-76
2023/10/29 05:10:29;;;;;;;0.22;0.20;;;11.50;99.90;;;;;;4984465;28;20143;-78
2023/10/29 05:12:56;;;;;;;0.30;0.30;;;11.50;99.90;;;;;;4985335;28;20050;-79
2023/10/29 05:15:22;;;;;;;0.73;0.30;;;11.50;99.90;;;;;;4985038;28;20108;-79
2023/10/29 05:17:47;;;;;;;0.38;0.30;;;11.50;99.90;;;;;;4985004;28;20540;-78
2023/10/29 05:20:13;;;;;;;0.32;0.20;;;11.50;99.90;;;;;;4986569;28;20058;-76
2023/10/29 05:22:39;;;;;;;0.20;0.20;;;11.50;99.90;;;;;;4986251;28;20073;-77
2023/10/29 05:25:07;;;;;;;0.10;0.10;;;11.40;99.90;;;;;;4985128;28;20397;-79
2023/10/29 05:27:33;;;;;;;0.52;0.35;;;11.50;99.90;;;;;;4986932;28;20149;-76
2023/10/29 05:29:59;;;;;;;0.20;0.10;;;11.50;99.90;;;;;;4985247;28;20116;-77
2023/10/29 05:32:28;;;;;;;0.63;0.28;;;11.40;99.90;;;;;;4968457;28;20473;-78
2023/10/29 05:34:54;;;;;;;0.25;0.25;;;11.40;99.90;;;;;;4985539;28;20053;-79
2023/10/29 05:37:20;;;;;;;0.30;0.30;;;11.50;99.90;;;;;;4984766;28;20485;-78
2023/10/29 05:39:45;;;;;;;0.43;0.30;;;11.50;99.90;;;;;;4983715;28;20054;-77
2023/10/29 05:42:13;;;;;;;0.35;0.28;;;11.50;99.90;;;;;;4986045;28;20074;-79
2023/10/29 05:44:39;;;;;;;1.25;0.47;;;11.60;99.90;;;;;;4984932;28;20080;-79
2023/10/29 05:47:04;;;;;;;1.33;0.57;;;11.60;99.90;;;;;;4985597;28;20078;-78
2023/10/29 05:49:30;;;;;;;0.35;0.32;;;11.60;99.90;;;;;;4986546;28;20118;-78
2023/10/29 05:51:55;;;;;;;0.75;0.40;;;11.70;99.90;;;;;;4985953;28;20057;-78
2023/10/29 05:54:21;;;;;;;0.50;0.40;;;11.70;99.90;;;;;;4983444;28;20089;-79
2023/10/29 05:56:46;;;;;;;0.40;0.40;;;11.70;99.90;;;;;;4984679;28;20093;-78
2023/10/29 05:59:13;;;;;;;0.50;0.40;;;11.70;99.90;;;;;;4985265;28;20498;-77
2023/10/29 06:01:38;;;;;;;0.55;0.55;;;11.70;99.90;;;;;;4984652;28;20134;-75
2023/10/29 06:04:05;;;;;;;0.40;0.40;;;11.70;99.90;;;;;;4983495;28;20133;-79
2023/10/29 06:06:31;;;;;;;0.50;0.47;;;11.70;99.90;;;;;;4984868;28;20084;-75
2023/10/29 06:08:56;;;;;;;0.32;0.30;;;11.70;99.90;;;;;;4982447;28;20042;-76
2023/10/29 06:11:22;;;;;;;1.48;0.88;;;11.70;99.90;;;;;;4982409;28;20382;-76
2023/10/29 06:13:47;;;;;;;0.50;0.32;;;11.80;99.90;;;;;;4983819;28;20058;-77
2023/10/29 06:16:13;;;;;;;3.80;0.30;;;11.80;99.90;;;;;;4984297;28;20045;-79
2023/10/29 06:18:39;;;;;;;0.20;0.15;;;11.70;99.90;;;;;;4985460;28;20042;-79
2023/10/29 06:21:04;;;;;;;1.02;0.75;;;11.70;99.90;;;;;;4983933;28;20050;-77
2023/10/29 06:23:30;;;;;;;0.65;0.40;;;11.70;99.90;;;;;;4984445;28;20184;-78
2023/10/29 06:25:55;;;;;;;1.83;0.20;;;11.70;99.90;;;;;;4984531;28;20078;-79
2023/10/29 06:28:21;;;;;;;0.65;0.55;;;11.60;99.90;;;;;;4984447;28;20443;-75
2023/10/29 06:30:47;;;;;;;0.63;0.63;;;11.60;99.90;;;;;;4983883;28;20038;-77
2023/10/29 06:33:12;;;;;;;1.65;0.15;;;11.60;99.90;;;;;;4984434;28;20046;-78
2023/10/29 06:35:40;;;;;;;0.57;0.20;;;11.50;99.90;;;;;;4984569;28;20516;-77
2023/10/29 06:38:06;;;;;;;0.30;0.30;;;11.50;99.90;;;;;;4987875;28;20042;-78
2023/10/29 06:40:31;;;;;;;1.13;0.57;;;11.50;99.90;;;;;;4991340;28;20056;-78
2023/10/29 06:42:57;;;;;;;1.17;0.60;;;11.50;99.90;;;;;;4970318;28;20493;-76
2023/10/29 06:45:22;;;;;;;1.33;0.38;;;11.50;99.90;;;;;;4985550;28;20057;-77
2023/10/29 06:47:48;;;;;;;0.55;0.30;;;11.50;99.90;;;;;;4991521;28;20050;-79
2023/10/29 06:50:14;;;;;;;0.30;0.30;;;11.50;99.90;;;;;;4988748;28;20034;-79
2023/10/29 06:52:39;;;;;;;0.35;0.35;;;11.50;99.90;;;;;;4994731;28;20159;-78
2023/10/29 06:55:08;;;;;;;0.70;0.60;;;11.50;99.90;;;;;;4987840;28;20046;-76
2023/10/29 06:57:35;;;;;;;0.63;0.40;;;11.50;99.90;;;;;;4977051;28;20050;-79
2023/10/29 07:00:00;;;;;;;1.98;0.65;;;11.50;99.90;;;;;;4987074;28;20440;-75
2023/10/29 07:02:26;;;;;;;1.23;0.38;;;11.50;99.90;;;;;;4982284;28;20137;-77
2023/10/29 07:04:51;;;;;;;1.48;0.50;;;11.50;99.90;;;;;;4984254;28;20061;-77
2023/10/29 07:07:18;;;;;;;1.08;0.30;;;11.50;99.90;;;;;;4994025;28;20054;-79
2023/10/29 07:09:43;;;;;;;1.20;0.90;;;11.60;99.90;;;;;;4983110;28;20165;-79
2023/10/29 07:12:09;;;;;;;2.40;0.57;;;11.60;99.90;;;;;;4983157;28;20460;-78
2023/10/29 07:14:34;;;;;;;0.52;0.35;;;11.60;99.90;;;;;;4983401;28;20164;-77
2023/10/29 07:17:00;;;;;;;0.85;0.80;;;11.60;99.90;;;;;;4983150;28;20042;-78
2023/10/29 07:19:25;;;;;;;0.68;0.38;;;11.70;99.90;;;;;;4983126;28;20042;-79
2023/10/29 07:21:51;;;;;;;1.30;0.70;;;11.70;99.90;;;;;;4993281;28;20385;-79
2023/10/29 07:24:16;;;;;;;0.93;0.43;;;11.70;99.90;;;;;;5002711;28;20069;-78
2023/10/29 07:26:42;;;;;;;1.00;0.45;;;11.70;99.90;;;;;;4987660;28;20050;-78
2023/10/29 07:29:08;;;;;;;1.38;0.57;;;11.70;99.90;;;;;;4983715;28;20449;-78
2023/10/29 07:31:33;;;;;;;0.70;0.70;;;11.70;99.90;;;;;;4984339;28;20382;-76
2023/10/29 07:33:59;;;;;;;1.23;1.05;;;11.80;99.90;;;;;;4984296;28;20136;-78
2023/10/29 07:36:24;;;;;;;0.80;0.80;;;11.70;99.90;;;;;;4977488;28;20383;-77
2023/10/29 07:38:50;;;;;;;0.57;0.43;;;11.80;99.90;;;;;;4981509;28;20042;-75
2023/10/29 07:41:19;;;;;;;2.08;0.60;;;11.80;99.90;;;;;;4983207;28;20685;-77
2023/10/29 07:43:46;;;;;;;0.95;0.40;;;11.90;99.90;;;;;;4982485;28;20046;-79
2023/10/29 07:46:11;;;;;;;2.60;0.52;;;11.90;99.90;;;;;;4984631;28;20046;-77
2023/10/29 07:48:37;;;;;;;3.60;0.63;;;11.90;99.90;;;;;;4993078;28;20066;-76
2023/10/29 07:51:03;;;;;;;2.20;0.90;;;12.00;99.90;;;;;;5001016;28;20046;-79
2023/10/29 07:53:30;;;;;;;0.88;0.80;;;12.00;99.90;;;;;;4990474;28;20073;-81
2023/10/29 07:56:13;;;;;;;1.25;0.40;;;11.90;99.90;;;;;;4987813;28;20046;-79
2023/10/29 07:58:40;;;;;;;2.80;1.23;;;11.90;99.90;;;;;;5000891;28;20041;-78
2023/10/29 08:01:15;;;;;;;3.05;1.35;;;11.90;99.90;;;;;;4987589;28;20049;-79
2023/10/29 08:03:42;;;;;;;2.70;0.70;;;11.80;99.90;;;;;;4980982;28;20043;-76
2023/10/29 08:06:08;;;;;;;2.88;1.05;;;11.80;99.90;;;;;;4983395;28;20128;-77
2023/10/29 08:08:34;;;;;;;1.70;1.02;;;11.70;99.90;;;;;;4984279;28;20069;-80
2023/10/29 08:11:00;;;;;;;3.60;0.98;;;11.70;99.90;;;;;;4982425;28;20043;-78
2023/10/29 08:13:25;;;;;;;1.98;0.60;;;11.70;99.90;;;;;;4983142;28;20137;-79
2023/10/29 08:15:51;;;;;;;3.33;0.93;;;11.70;99.90;;;;;;4980558;28;20037;-77
2023/10/29 08:18:16;;;;;;;3.70;0.47;;;11.70;99.90;;;;;;4987677;28;20460;-79
2023/10/29 08:20:42;;;;;;;2.33;0.43;;;11.70;99.90;;;;;;5000495;28;20468;-79
2023/10/29 08:23:08;;;;;;;7.25;1.70;;;11.70;99.90;;;;;;4998691;28;20050;-77
2023/10/29 08:25:37;;;;;;;4.97;0.93;;;11.70;99.90;;;;;;4986593;28;20473;-77
2023/10/29 08:28:03;;;;;;;2.88;1.25;;;11.70;99.90;;;;;;4983313;28;20082;-77
2023/10/29 08:30:29;;;;;;;4.82;0.82;;;11.70;99.90;;;;;;4982161;28;20081;-79
2023/10/29 08:32:55;;;;;;;4.28;1.05;;;11.70;99.90;;;;;;4982771;28;20467;-79
2023/10/29 08:35:20;;;;;;;2.20;0.80;;;11.80;99.90;;;;;;4972234;28;20104;-78
2023/10/29 08:37:46;;;;;;;1.85;0.95;;;11.80;99.90;;;;;;4987793;28;20050;-77
2023/10/29 08:40:12;;;;;;;3.83;1.00;;;11.80;99.90;;;;;;4984200;28;20080;-77
2023/10/29 08:42:38;;;;;;;2.50;0.65;;;11.80;99.90;;;;;;5001498;28;20053;-77
2023/10/29 08:45:04;;;;;;;2.65;0.52;;;11.90;99.90;;;;;;5002142;28;20451;-75
2023/10/29 08:47:31;;;;;;;2.47;0.80;;;11.90;99.90;;;;;;5001802;28;20045;-75
2023/10/29 08:49:57;;;;;;;2.80;0.43;;;11.90;99.90;;;;;;5002345;28;20046;-77
2023/10/29 08:52:23;;;;;;;1.50;0.73;;;11.90;99.90;;;;;;4992447;28;20511;-77
2023/10/29 08:54:49;;;;;;;1.15;0.60;;;11.90;99.90;;;;;;4997729;28;20038;-75
2023/10/29 08:57:14;;;;;;;2.38;0.95;;;11.90;99.90;;;;;;4981907;28;20047;-76
2023/10/29 08:59:40;;;;;;;0.65;0.52;;;11.90;99.90;;;;;;4984118;28;20050;-75
2023/10/29 09:02:07;;;;;;;2.95;0.75;;;11.90;99.90;;;;;;4989027;28;20132;-76
2023/10/29 09:04:39;;;;;;;8.65;1.17;;;11.90;99.90;;;;;;4995035;28;20405;-77
2023/10/29 09:07:06;;;;;;;1.67;0.65;;;11.90;99.90;;;;;;4998665;28;20042;-77
2023/10/29 09:09:32;;;;;;;0.57;0.57;;;11.80;99.90;;;;;;4992777;28;20105;-74
2023/10/29 09:11:57;;;;;;;3.17;1.02;;;11.80;99.90;;;;;;4982793;28;20065;-77
2023/10/29 09:14:23;;;;;;;0.55;0.50;;;11.80;99.90;;;;;;4982471;28;20780;-79
2023/10/29 09:16:49;;;;;;;5.05;0.57;;;11.80;99.90;;;;;;4995765;28;20057;-74
2023/10/29 09:19:15;;;;;;;1.42;0.65;;;11.80;99.90;;;;;;4988246;28;20738;-78
2023/10/29 09:21:40;;;;;;;3.35;1.80;;;11.80;99.90;;;;;;4992645;28;20047;-78
2023/10/29 09:24:07;;;;;;;3.53;0.60;;;11.80;99.90;;;;;;4990323;28;20039;-76
2023/10/29 09:26:33;;;;;;;0.88;0.70;;;11.90;99.90;;;;;;4981508;28;20537;-76
2023/10/29 09:29:02;;;;;;;4.43;0.60;;;11.90;99.90;;;;;;4981791;28;20065;-77
2023/10/29 09:31:28;;;;;;;2.90;1.80;;;11.90;99.90;;;;;;4984287;28;20109;-78
2023/10/29 09:33:55;;;;;;;7.68;0.95;;;11.90;99.90;;;;;;4991571;28;20069;-78
2023/10/29 09:36:20;;;;;;;0.95;0.60;;;12.00;99.90;;;;;;4986037;28;20046;-77
2023/10/29 09:38:46;;;;;;;1.23;0.60;;;12.00;99.90;;;;;;4987518;28;20105;-78
2023/10/29 09:41:18;;;;;;;2.38;0.88;;;12.10;99.90;;;;;;4982854;28;20057;-79
2023/10/29 09:43:44;;;;;;;2.77;0.70;;;12.20;99.90;;;;;;4980974;28;20038;-77
2023/10/29 09:46:11;;;;;;;1.13;0.70;;;12.30;99.90;;;;;;4985064;28;20042;-79
2023/10/29 09:48:37;;;;;;;2.65;0.82;;;12.30;99.90;;;;;;4985466;28;20130;-77
2023/10/29 09:51:06;;;;;;;3.50;1.40;;;12.50;99.90;;;;;;4987851;28;20551;-76
2023/10/29 09:53:36;;;;;;;0.40;0.40;;;12.50;99.90;;;;;;4981218;28;20054;-78
2023/10/29 09:56:02;;;;;;;1.95;0.50;;;12.60;99.90;;;;;;4984871;28;20050;-78
2023/10/29 09:58:29;;;;;;;3.15;0.60;;;12.70;99.90;;;;;;4985351;28;20097;-76
2023/10/29 10:00:57;;;;;;;5.05;0.73;;;12.70;99.90;;;;;;4987656;28;20054;-76
2023/10/29 10:03:25;;;;;;;3.47;1.20;;;12.70;99.90;;;;;;4976816;28;20133;-76
2023/10/29 10:05:52;;;;;;;3.40;0.57;;;12.70;99.90;;;;;;4976324;28;20090;-75
2023/10/29 10:08:26;;;;;;;2.72;0.55;;;12.70;99.90;;;;;;4979709;28;21671;-77
2023/10/29 10:10:53;;;;;;;12.23;0.98;;;12.70;99.90;;;;;;4981355;28;20046;-77
2023/10/29 10:13:34;;;;;;;4.95;1.10;;;12.70;99.90;;;;;;4988210;28;20096;-77
2023/10/29 10:16:15;;;;;;;4.65;0.65;;;12.70;99.90;;;;;;4974190;28;20047;-77
2023/10/29 10:18:58;;;;;;;3.25;1.35;;;12.70;99.90;;;;;;4984615;28;20078;-76
2023/10/29 10:21:44;;;;;;;1.25;0.40;;;12.70;99.90;;;;;;4982856;28;20408;-76
2023/10/29 10:24:10;;;;;;;2.28;0.52;;;12.70;99.90;;;;;;4977061;28;20046;-77
2023/10/29 10:26:37;;;;;;;3.58;1.00;;;12.70;99.90;;;;;;4984090;28;20053;-78
2023/10/29 10:29:05;;;;;;;2.40;0.93;;;12.60;99.90;;;;;;4987347;28;20038;-78
2023/10/29 10:31:33;;;;;;;2.50;0.65;;;12.60;99.90;;;;;;4977743;28;20046;-76
2023/10/29 10:34:15;;;;;;;1.58;0.90;;;12.60;99.90;;;;;;4983455;28;20046;-76
2023/10/29 10:36:42;;;;;;;;;;;12.60;99.90;;;;;;4980882;28;20109;-78
2023/10/29 10:39:08;;;;;;;1.90;0.80;;;12.60;99.90;;;;;;5003783;28;19928;-75
2023/10/29 10:41:46;;;;;;;8.13;1.75;;;12.60;99.90;;;;;;4980170;28;20039;-76
2023/10/29 10:44:13;;;;;;;2.20;0.80;;;12.70;99.90;;;;;;4983017;28;20422;-76
2023/10/29 10:46:54;;;;;;;3.35;0.88;;;12.60;99.90;;;;;;4985432;28;20045;-76
2023/10/29 10:49:21;;;;;;;1.15;0.95;;;12.60;99.90;;;;;;4988281;28;20040;-76
2023/10/29 10:51:48;;;;;;;1.40;0.82;;;12.60;99.90;;;;;;4993122;28;20047;-75
2023/10/29 10:54:19;;;;;;;1.80;1.00;;;12.60;99.90;;;;;;4987210;28;20038;-74
2023/10/29 10:56:45;;;;;;;2.05;0.57;;;12.50;99.90;;;;;;4988125;28;20057;-74
2023/10/29 10:59:11;;;;;;;4.72;1.42;;;12.60;99.90;;;;;;4993476;28;20042;-76
2023/10/29 11:01:38;;;;;;;2.78;1.25;;;12.50;99.90;;;;;;4968043;28;20184;-75
2023/10/29 11:04:07;;;;;;;3.67;0.70;;;12.60;99.90;;;;;;4971641;28;20395;-76
2023/10/29 11:06:35;;;;;;;2.80;1.10;;;12.60;99.90;;;;;;4997697;28;20050;-75
2023/10/29 11:09:01;;;;;;;2.83;0.65;;;12.60;99.90;;;;;;4994055;28;20046;-75
2023/10/29 11:11:33;;;;;;;5.32;0.80;;;12.60;99.90;;;;;;4979932;28;20046;-76
2023/10/29 11:14:09;;;;;;;3.72;0.60;;;12.70;99.90;;;;;;4993497;28;20134;-76
2023/10/29 11:16:46;;;;;;;3.25;1.10;;;12.70;99.90;;;;;;4991616;28;20623;-77
2023/10/29 11:19:39;;;;;;;2.47;0.63;;;12.70;99.90;;;;;;4959993;28;20073;-75
2023/10/29 11:22:20;;;;;;;0.98;0.65;;;12.70;99.90;;;;;;4973675;28;20206;-76
2023/10/29 11:25:04;;;;;;;2.05;0.60;;;12.70;99.90;;;;;;4980178;28;20042;-76
2023/10/29 11:27:38;;;;;;;3.83;1.10;;;12.70;99.90;;;;;;4963971;28;20049;-76
2023/10/29 11:30:25;;;;;;;2.30;0.68;;;12.80;99.90;;;;;;4976618;28;20050;-77
2023/10/29 11:33:08;;;;;;;3.35;1.20;;;12.80;99.90;;;;;;4979042;28;20085;-75
2023/10/29 11:35:34;;;;;;;3.22;0.80;;;12.90;99.90;;;;;;4982991;28;20099;-77
2023/10/29 11:38:02;;;;;;;2.92;0.80;;;12.90;99.90;;;;;;4999148;28;20070;-76
2023/10/29 11:40:33;;;;;;;2.78;0.80;;;12.90;99.90;;;;;;4981598;28;20333;-76
2023/10/29 11:43:16;;;;;;;5.68;1.23;;;12.90;99.90;;;;;;4983653;28;20050;-76
2023/10/29 11:45:51;;;;;;;1.33;0.45;;;12.90;99.90;;;;;;4982013;28;20507;-76
2023/10/29 11:48:16;;;;;;;5.00;0.45;;;12.90;99.90;;;;;;4985973;28;20042;-75
2023/10/29 11:51:02;;;;;;;3.05;0.60;;;12.90;99.90;;;;;;4983815;28;20049;-77
2023/10/29 11:53:28;;;;;;;4.18;1.13;;;13.00;99.90;;;;;;4988291;28;20501;-76
2023/10/29 11:55:57;;;;;;;3.42;1.05;;;13.00;99.90;;;;;;4982099;28;20056;-76
2023/10/29 11:58:24;;;;;;;5.10;0.80;;;13.10;99.90;;;;;;4985320;28;20056;-77
2023/10/29 12:00:50;;;;;;;3.53;0.88;;;13.10;99.90;;;;;;4985157;28;20160;-79
2023/10/29 12:03:20;;;;;;;1.70;0.52;;;13.10;99.90;;;;;;4990635;28;20488;-75
2023/10/29 12:05:48;;;;;;;2.15;1.02;;;13.00;99.90;;;;;;4983753;28;20042;-74
2023/10/29 12:08:14;;;;;;;8.20;0.98;;;13.00;99.90;;;;;;4978912;28;20274;-74
2023/10/29 12:10:48;;;;;;;3.70;1.40;;;12.90;99.90;;;;;;4980522;28;20065;-75
2023/10/29 12:13:16;;;;;;;3.47;1.27;;;12.90;99.90;;;;;;4981511;28;20042;-74
2023/10/29 12:15:46;;;;;;;1.42;0.60;;;12.80;99.90;;;;;;4981765;28;20046;-74
2023/10/29 12:18:19;;;;;;;3.20;0.57;;;12.70;99.90;;;;;;4963965;28;20039;-74
2023/10/29 12:20:44;;;;;;;3.42;0.52;;;12.70;99.90;;;;;;4980602;28;20394;-74
2023/10/29 12:23:10;;;;;;;4.03;1.45;;;12.60;99.90;;;;;;4980333;28;20049;-74
2023/10/29 12:25:35;;;;;;;2.63;0.70;;;12.60;99.90;;;;;;4980065;28;20140;-75
2023/10/29 12:28:01;;;;;;;5.30;1.02;;;12.60;99.90;;;;;;4982241;28;20104;-74
2023/10/29 12:30:55;;;;;;;2.58;0.98;;;12.60;99.90;;;;;;4980955;28;20466;-74
2023/10/29 12:33:26;;;;;;;7.28;1.63;;;12.50;99.90;;;;;;4979284;28;20054;-74
2023/10/29 12:35:53;;;;;;;2.65;0.70;;;12.50;99.90;;;;;;4980007;28;20042;-74
2023/10/29 12:38:20;;;;;;;3.15;0.80;;;12.50;99.90;;;;;;4979175;28;20053;-74
2023/10/29 12:41:01;;;;;;;1.25;0.47;;;12.50;99.90;;;;;;4979860;28;20440;-74
2023/10/29 12:43:41;;;;;;;3.13;0.90;;;12.50;99.90;;;;;;4979817;28;20445;-74
2023/10/29 12:46:11;;;;;;;2.97;0.98;;;12.50;99.90;;;;;;4980871;28;20421;-75
2023/10/29 12:49:07;;;;;;;0.75;0.70;;;12.50;99.90;;;;;;4981325;28;20049;-74